sensor_id;sensor_type;location;lat;lon;timestamp;pressure;altitude;pressure_sealevel;temperature;humidity
26376;BME280;30544;42.196;24.336;2024-02-04T00:01:46;99499.50;;;6.70;61.43
26376;BME280;30544;42.196;24.336;2024-02-04T00:04:13;99490.16;;;6.71;61.61
26376;BME280;30544;42.196;24.336;2024-02-04T00:06:39;99489.13;;;6.72;61.69
26376;BME280;30544;42.196;24.336;2024-02-04T00:09:06;99486.56;;;6.71;61.74
26376;BME280;30544;42.196;24.336;2024-02-04T00:11:33;99492.31;;;6.69;61.75
26376;BME280;30544;42.196;24.336;2024-02-04T00:14:00;99480.00;;;6.72;61.91
26376;BME280;30544;42.196;24.336;2024-02-04T00:16:26;99491.47;;;6.75;62.16
26376;BME280;30544;42.196;24.336;2024-02-04T00:18:54;99486.78;;;6.76;62.13
26376;BME280;30544;42.196;24.336;2024-02-04T00:21:21;99491.88;;;6.79;62.10
26376;BME280;30544;42.196;24.336;2024-02-04T00:23:47;99502.19;;;6.97;62.84
26376;BME280;30544;42.196;24.336;2024-02-04T00:26:14;99492.38;;;7.14;62.54
26376;BME280;30544;42.196;24.336;2024-02-04T00:28:40;99490.41;;;7.28;63.15
26376;BME280;30544;42.196;24.336;2024-02-04T00:31:08;99500.53;;;7.72;63.09
26376;BME280;30544;42.196;24.336;2024-02-04T00:33:34;99494.72;;;8.36;62.45
26376;BME280;30544;42.196;24.336;2024-02-04T00:36:02;99497.78;;;8.90;60.82
26376;BME280;30544;42.196;24.336;2024-02-04T00:38:29;99495.09;;;9.20;60.50
26376;BME280;30544;42.196;24.336;2024-02-04T00:40:55;99498.84;;;9.44;59.16
26376;BME280;30544;42.196;24.336;2024-02-04T00:43:22;99482.06;;;9.69;58.04
26376;BME280;30544;42.196;24.336;2024-02-04T00:45:49;99490.72;;;10.02;56.65
26376;BME280;30544;42.196;24.336;2024-02-04T00:48:15;99494.69;;;10.06;56.26
26376;BME280;30544;42.196;24.336;2024-02-04T00:50:42;99505.63;;;10.31;55.60
26376;BME280;30544;42.196;24.336;2024-02-04T00:53:10;99492.88;;;10.42;56.10
26376;BME280;30544;42.196;24.336;2024-02-04T00:55:36;99483.81;;;10.70;55.27
26376;BME280;30544;42.196;24.336;2024-02-04T00:58:03;99491.28;;;10.81;54.79
26376;BME280;30544;42.196;24.336;2024-02-04T01:00:29;99503.81;;;10.72;54.70
26376;BME280;30544;42.196;24.336;2024-02-04T01:02:56;99498.88;;;10.97;54.37
26376;BME280;30544;42.196;24.336;2024-02-04T01:05:22;99506.72;;;11.00;53.80
26376;BME280;30544;42.196;24.336;2024-02-04T01:07:49;99508.88;;;10.98;53.26
26376;BME280;30544;42.196;24.336;2024-02-04T01:10:17;99497.03;;;11.14;52.63
26376;BME280;30544;42.196;24.336;2024-02-04T01:12:43;99500.06;;;11.13;53.21
26376;BME280;30544;42.196;24.336;2024-02-04T01:15:10;99503.91;;;11.12;53.03
26376;BME280;30544;42.196;24.336;2024-02-04T01:17:37;99494.16;;;11.09;52.76
26376;BME280;30544;42.196;24.336;2024-02-04T01:20:03;99489.75;;;11.25;52.41
26376;BME280;30544;42.196;24.336;2024-02-04T01:22:30;99488.38;;;10.99;53.21
26376;BME280;30544;42.196;24.336;2024-02-04T01:24:57;99477.00;;;11.12;52.72
26376;BME280;30544;42.196;24.336;2024-02-04T01:27:25;99480.88;;;11.11;53.06
26376;BME280;30544;42.196;24.336;2024-02-04T01:29:51;99465.66;;;11.02;52.89
26376;BME280;30544;42.196;24.336;2024-02-04T01:32:18;99473.31;;;10.95;53.46
26376;BME280;30544;42.196;24.336;2024-02-04T01:34:45;99468.69;;;11.12;53.00
26376;BME280;30544;42.196;24.336;2024-02-04T01:37:11;99474.91;;;11.20;52.57
26376;BME280;30544;42.196;24.336;2024-02-04T01:39:38;99465.31;;;11.10;53.30
26376;BME280;30544;42.196;24.336;2024-02-04T01:42:04;99466.00;;;11.18;52.89
26376;BME280;30544;42.196;24.336;2024-02-04T01:44:33;99475.69;;;11.03;53.39
26376;BME280;30544;42.196;24.336;2024-02-04T01:46:59;99467.41;;;11.32;52.23
26376;BME280;30544;42.196;24.336;2024-02-04T01:49:26;99468.47;;;11.42;52.07
26376;BME280;30544;42.196;24.336;2024-02-04T01:51:52;99460.25;;;11.36;51.81
26376;BME280;30544;42.196;24.336;2024-02-04T01:54:19;99469.47;;;11.25;52.42
26376;BME280;30544;42.196;24.336;2024-02-04T01:56:46;99460.34;;;11.12;52.00
26376;BME280;30544;42.196;24.336;2024-02-04T01:59:15;99461.81;;;11.03;52.33
26376;BME280;30544;42.196;24.336;2024-02-04T02:01:44;99452.19;;;10.94;53.25
26376;BME280;30544;42.196;24.336;2024-02-04T02:04:12;99462.47;;;10.82;53.44
26376;BME280;30544;42.196;24.336;2024-02-04T02:06:39;99460.44;;;10.66;54.38
26376;BME280;30544;42.196;24.336;2024-02-04T02:09:07;99454.88;;;10.66;54.54
26376;BME280;30544;42.196;24.336;2024-02-04T02:11:37;99456.31;;;10.68;54.47
26376;BME280;30544;42.196;24.336;2024-02-04T02:14:06;99454.13;;;10.82;54.21
26376;BME280;30544;42.196;24.336;2024-02-04T02:16:35;99457.34;;;10.91;54.25
26376;BME280;30544;42.196;24.336;2024-02-04T02:19:03;99456.16;;;10.87;53.41
26376;BME280;30544;42.196;24.336;2024-02-04T02:21:38;99464.97;;;10.95;54.03
26376;BME280;30544;42.196;24.336;2024-02-04T02:24:10;99460.97;;;10.91;53.62
26376;BME280;30544;42.196;24.336;2024-02-04T02:26:38;99454.84;;;10.89;54.02
26376;BME280;30544;42.196;24.336;2024-02-04T02:29:06;99454.13;;;10.82;53.36
26376;BME280;30544;42.196;24.336;2024-02-04T02:31:33;99457.75;;;10.71;54.46
26376;BME280;30544;42.196;24.336;2024-02-04T02:34:01;99448.72;;;10.75;54.17
26376;BME280;30544;42.196;24.336;2024-02-04T02:36:28;99448.34;;;10.72;54.13
26376;BME280;30544;42.196;24.336;2024-02-04T02:38:58;99447.00;;;10.74;53.99
26376;BME280;30544;42.196;24.336;2024-02-04T02:41:26;99439.06;;;10.54;54.11
26376;BME280;30544;42.196;24.336;2024-02-04T02:43:57;99444.47;;;10.73;54.51
26376;BME280;30544;42.196;24.336;2024-02-04T02:46:25;99426.97;;;10.84;53.53
26376;BME280;30544;42.196;24.336;2024-02-04T02:48:52;99428.31;;;10.81;53.95
26376;BME280;30544;42.196;24.336;2024-02-04T02:51:19;99437.84;;;10.74;53.64
26376;BME280;30544;42.196;24.336;2024-02-04T02:53:46;99429.91;;;10.66;53.90
26376;BME280;30544;42.196;24.336;2024-02-04T02:56:12;99428.94;;;10.72;53.60
26376;BME280;30544;42.196;24.336;2024-02-04T02:58:39;99441.94;;;10.71;53.55
26376;BME280;30544;42.196;24.336;2024-02-04T03:01:07;99437.38;;;10.65;53.83
26376;BME280;30544;42.196;24.336;2024-02-04T03:03:33;99431.59;;;10.55;53.17
26376;BME280;30544;42.196;24.336;2024-02-04T03:06:00;99438.03;;;10.44;53.00
26376;BME280;30544;42.196;24.336;2024-02-04T03:08:26;99429.69;;;10.32;53.63
26376;BME280;30544;42.196;24.336;2024-02-04T03:10:53;99431.13;;;10.23;54.17
26376;BME280;30544;42.196;24.336;2024-02-04T03:13:19;99441.69;;;10.14;53.82
26376;BME280;30544;42.196;24.336;2024-02-04T03:15:45;99438.91;;;10.03;53.98
26376;BME280;30544;42.196;24.336;2024-02-04T03:18:13;99441.06;;;10.01;54.14
26376;BME280;30544;42.196;24.336;2024-02-04T03:20:40;99432.41;;;9.97;53.92
26376;BME280;30544;42.196;24.336;2024-02-04T03:23:06;99436.63;;;10.00;53.23
26376;BME280;30544;42.196;24.336;2024-02-04T03:25:33;99446.88;;;9.99;54.15
26376;BME280;30544;42.196;24.336;2024-02-04T03:27:59;99437.22;;;10.02;53.14
26376;BME280;30544;42.196;24.336;2024-02-04T03:30:26;99441.84;;;10.08;52.91
26376;BME280;30544;42.196;24.336;2024-02-04T03:32:53;99436.03;;;10.09;52.37
26376;BME280;30544;42.196;24.336;2024-02-04T03:35:21;99437.00;;;10.15;52.21
26376;BME280;30544;42.196;24.336;2024-02-04T03:37:48;99424.84;;;10.16;52.96
26376;BME280;30544;42.196;24.336;2024-02-04T03:40:14;99424.59;;;10.17;52.19
26376;BME280;30544;42.196;24.336;2024-02-04T03:42:41;99424.59;;;10.17;52.69
26376;BME280;30544;42.196;24.336;2024-02-04T03:45:07;99434.34;;;10.20;52.03
26376;BME280;30544;42.196;24.336;2024-02-04T03:47:34;99428.34;;;10.23;52.06
26376;BME280;30544;42.196;24.336;2024-02-04T03:50:00;99433.44;;;10.26;52.57
26376;BME280;30544;42.196;24.336;2024-02-04T03:52:30;99439.09;;;10.31;52.77
26376;BME280;30544;42.196;24.336;2024-02-04T03:54:56;99424.75;;;10.34;52.53
26376;BME280;30544;42.196;24.336;2024-02-04T03:57:24;99435.47;;;10.31;52.25
26376;BME280;30544;42.196;24.336;2024-02-04T03:59:51;99425.09;;;10.38;52.61
26376;BME280;30544;42.196;24.336;2024-02-04T04:02:17;99436.56;;;10.41;52.81
26376;BME280;30544;42.196;24.336;2024-02-04T04:04:44;99440.06;;;10.48;52.59
26376;BME280;30544;42.196;24.336;2024-02-04T04:07:12;99423.53;;;10.53;52.59
26376;BME280;30544;42.196;24.336;2024-02-04T04:09:40;99427.50;;;10.58;51.82
26376;BME280;30544;42.196;24.336;2024-02-04T04:12:07;99425.34;;;10.60;51.90
26376;BME280;30544;42.196;24.336;2024-02-04T04:14:33;99410.38;;;10.61;52.38
26376;BME280;30544;42.196;24.336;2024-02-04T04:17:00;99404.84;;;10.61;52.50
26376;BME280;30544;42.196;24.336;2024-02-04T04:19:26;99417.88;;;10.60;52.34
26376;BME280;30544;42.196;24.336;2024-02-04T04:21:53;99422.69;;;10.65;52.70
26376;BME280;30544;42.196;24.336;2024-02-04T04:24:19;99412.53;;;10.70;52.28
26376;BME280;30544;42.196;24.336;2024-02-04T04:26:48;99401.56;;;10.75;52.52
26376;BME280;30544;42.196;24.336;2024-02-04T04:29:15;99395.13;;;10.75;51.75
26376;BME280;30544;42.196;24.336;2024-02-04T04:31:41;99388.75;;;10.74;51.48
26376;BME280;30544;42.196;24.336;2024-02-04T04:34:10;99387.31;;;10.72;51.73
26376;BME280;30544;42.196;24.336;2024-02-04T04:36:36;99388.53;;;10.76;51.63
26376;BME280;30544;42.196;24.336;2024-02-04T04:39:03;99382.75;;;10.77;51.89
26376;BME280;30544;42.196;24.336;2024-02-04T04:41:29;99402.16;;;10.77;51.40
26376;BME280;30544;42.196;24.336;2024-02-04T04:43:57;99387.19;;;10.78;51.55
26376;BME280;30544;42.196;24.336;2024-02-04T04:46:24;99380.81;;;10.78;51.26
26376;BME280;30544;42.196;24.336;2024-02-04T04:48:50;99385.97;;;10.74;51.54
26376;BME280;30544;42.196;24.336;2024-02-04T04:51:17;99377.66;;;10.74;50.83
26376;BME280;30544;42.196;24.336;2024-02-04T04:53:44;99400.47;;;10.76;51.50
26376;BME280;30544;42.196;24.336;2024-02-04T04:56:10;99407.81;;;10.71;51.54
26376;BME280;30544;42.196;24.336;2024-02-04T04:58:37;99414.56;;;10.75;51.73
26376;BME280;30544;42.196;24.336;2024-02-04T05:01:05;99421.94;;;10.81;51.79
26376;BME280;30544;42.196;24.336;2024-02-04T05:03:32;99422.53;;;10.83;51.06
26376;BME280;30544;42.196;24.336;2024-02-04T05:05:58;99419.41;;;10.79;51.83
26376;BME280;30544;42.196;24.336;2024-02-04T05:08:26;99423.03;;;10.80;51.44
26376;BME280;30544;42.196;24.336;2024-02-04T05:10:52;99430.38;;;10.74;52.24
26376;BME280;30544;42.196;24.336;2024-02-04T05:13:19;99419.16;;;10.81;51.80
26376;BME280;30544;42.196;24.336;2024-02-04T05:15:45;99429.41;;;10.80;51.85
26376;BME280;30544;42.196;24.336;2024-02-04T05:18:13;99416.28;;;10.76;52.06
26376;BME280;30544;42.196;24.336;2024-02-04T05:20:40;99410.47;;;10.77;51.44
26376;BME280;30544;42.196;24.336;2024-02-04T05:23:08;99411.91;;;10.80;51.88
26376;BME280;30544;42.196;24.336;2024-02-04T05:25:35;99411.03;;;10.91;52.54
26376;BME280;30544;42.196;24.336;2024-02-04T05:28:01;99416.13;;;10.94;51.52
26376;BME280;30544;42.196;24.336;2024-02-04T05:30:28;99428.66;;;10.97;51.50
26376;BME280;30544;42.196;24.336;2024-02-04T05:32:53;99439.41;;;10.93;51.67
26376;BME280;30544;42.196;24.336;2024-02-04T05:35:21;99455.22;;;10.93;51.78
26376;BME280;30544;42.196;24.336;2024-02-04T05:37:48;99453.75;;;10.90;51.80
26376;BME280;30544;42.196;24.336;2024-02-04T05:40:14;99458.94;;;10.87;51.83
26376;BME280;30544;42.196;24.336;2024-02-04T05:42:43;99449.69;;;10.81;51.60
26376;BME280;30544;42.196;24.336;2024-02-04T05:45:10;99454.28;;;10.75;52.15
26376;BME280;30544;42.196;24.336;2024-02-04T05:47:37;99446.91;;;10.69;51.75
26376;BME280;30544;42.196;24.336;2024-02-04T05:50:04;99455.22;;;10.58;52.39
26376;BME280;30544;42.196;24.336;2024-02-04T05:52:32;99459.34;;;10.55;51.97
26376;BME280;30544;42.196;24.336;2024-02-04T05:54:58;99451.75;;;10.50;51.83
26376;BME280;30544;42.196;24.336;2024-02-04T05:57:25;99452.84;;;10.49;52.19
26376;BME280;30544;42.196;24.336;2024-02-04T05:59:51;99452.13;;;10.42;52.75
26376;BME280;30544;42.196;24.336;2024-02-04T06:02:20;99456.59;;;10.43;52.97
26376;BME280;30544;42.196;24.336;2024-02-04T06:04:47;99460.44;;;10.42;52.42
26376;BME280;30544;42.196;24.336;2024-02-04T06:07:14;99441.88;;;10.43;52.86
26376;BME280;30544;42.196;24.336;2024-02-04T06:09:42;99445.25;;;10.45;52.54
26376;BME280;30544;42.196;24.336;2024-02-04T06:12:09;99440.31;;;10.47;52.98
26376;BME280;30544;42.196;24.336;2024-02-04T06:14:35;99439.47;;;10.46;53.51
26376;BME280;30544;42.196;24.336;2024-02-04T06:17:05;99428.97;;;10.48;53.11
26376;BME280;30544;42.196;24.336;2024-02-04T06:19:33;99424.03;;;10.50;52.80
26376;BME280;30544;42.196;24.336;2024-02-04T06:21:59;99423.31;;;10.43;52.98
26376;BME280;30544;42.196;24.336;2024-02-04T06:24:26;99432.34;;;10.50;53.74
26376;BME280;30544;42.196;24.336;2024-02-04T06:26:54;99434.50;;;10.48;53.49
26376;BME280;30544;42.196;24.336;2024-02-04T06:29:20;99435.34;;;10.49;53.30
26376;BME280;30544;42.196;24.336;2024-02-04T06:31:47;99432.59;;;10.49;53.17
26376;BME280;30544;42.196;24.336;2024-02-04T06:34:13;99437.16;;;10.55;52.94
26376;BME280;30544;42.196;24.336;2024-02-04T06:36:42;99430.91;;;10.60;53.10
26376;BME280;30544;42.196;24.336;2024-02-04T06:39:08;99449.69;;;10.58;52.79
26376;BME280;30544;42.196;24.336;2024-02-04T06:41:35;99445.34;;;10.62;53.46
26376;BME280;30544;42.196;24.336;2024-02-04T06:44:03;99452.94;;;10.66;53.39
26376;BME280;30544;42.196;24.336;2024-02-04T06:46:30;99469.09;;;10.69;53.38
26376;BME280;30544;42.196;24.336;2024-02-04T06:48:56;99464.88;;;10.78;53.40
26376;BME280;30544;42.196;24.336;2024-02-04T06:51:23;99458.84;;;10.81;53.54
26376;BME280;30544;42.196;24.336;2024-02-04T06:53:49;99455.06;;;10.88;53.11
26376;BME280;30544;42.196;24.336;2024-02-04T06:56:16;99462.06;;;10.90;52.76
26376;BME280;30544;42.196;24.336;2024-02-04T06:58:43;99451.34;;;10.94;53.43
26376;BME280;30544;42.196;24.336;2024-02-04T07:01:11;99449.63;;;11.04;52.70
26376;BME280;30544;42.196;24.336;2024-02-04T07:03:38;99459.25;;;11.13;53.45
26376;BME280;30544;42.196;24.336;2024-02-04T07:06:05;99463.72;;;11.14;53.92
26376;BME280;30544;42.196;24.336;2024-02-04T07:08:31;99458.06;;;11.38;53.62
26376;BME280;30544;42.196;24.336;2024-02-04T07:10:58;99454.25;;;11.56;54.51
26376;BME280;30544;42.196;24.336;2024-02-04T07:13:24;99453.69;;;11.82;54.23
26376;BME280;30544;42.196;24.336;2024-02-04T07:15:51;99458.94;;;11.95;54.13
26376;BME280;30544;42.196;24.336;2024-02-04T07:18:20;99463.91;;;12.10;54.38
26376;BME280;30544;42.196;24.336;2024-02-04T07:20:48;99463.66;;;12.28;54.75
26376;BME280;30544;42.196;24.336;2024-02-04T07:23:14;99459.28;;;12.32;54.60
26376;BME280;30544;42.196;24.336;2024-02-04T07:25:41;99462.19;;;12.59;54.66
26376;BME280;30544;42.196;24.336;2024-02-04T07:28:08;99479.94;;;12.75;54.66
26376;BME280;30544;42.196;24.336;2024-02-04T07:30:34;99473.97;;;13.05;54.10
26376;BME280;30544;42.196;24.336;2024-02-04T07:33:01;99472.53;;;13.19;52.91
26376;BME280;30544;42.196;24.336;2024-02-04T07:35:29;99478.84;;;13.32;51.96
26376;BME280;30544;42.196;24.336;2024-02-04T07:37:55;99479.78;;;13.42;52.30
26376;BME280;30544;42.196;24.336;2024-02-04T07:40:22;99473.22;;;13.53;51.87
26376;BME280;30544;42.196;24.336;2024-02-04T07:42:48;99474.50;;;13.68;51.51
26376;BME280;30544;42.196;24.336;2024-02-04T07:45:15;99471.31;;;13.81;51.07
26376;BME280;30544;42.196;24.336;2024-02-04T07:47:41;99460.06;;;13.98;50.95
26376;BME280;30544;42.196;24.336;2024-02-04T07:50:08;99460.47;;;14.11;50.50
26376;BME280;30544;42.196;24.336;2024-02-04T07:52:36;99449.69;;;14.25;50.45
26376;BME280;30544;42.196;24.336;2024-02-04T07:55:03;99442.81;;;14.38;50.60
26376;BME280;30544;42.196;24.336;2024-02-04T07:57:30;99453.59;;;14.56;50.13
26376;BME280;30544;42.196;24.336;2024-02-04T07:59:56;99445.88;;;14.73;50.02
26376;BME280;30544;42.196;24.336;2024-02-04T08:02:23;99439.81;;;14.87;49.35
26376;BME280;30544;42.196;24.336;2024-02-04T08:04:49;99431.53;;;14.97;49.51
26376;BME280;30544;42.196;24.336;2024-02-04T08:07:16;99436.91;;;15.14;49.27
26376;BME280;30544;42.196;24.336;2024-02-04T08:09:44;99433.03;;;15.25;48.55
26376;BME280;30544;42.196;24.336;2024-02-04T08:12:11;99426.66;;;15.34;48.57
26376;BME280;30544;42.196;24.336;2024-02-04T08:14:38;99428.91;;;15.43;48.07
26376;BME280;30544;42.196;24.336;2024-02-04T08:17:04;99430.91;;;15.52;47.44
26376;BME280;30544;42.196;24.336;2024-02-04T08:19:31;99436.00;;;15.66;47.28
26376;BME280;30544;42.196;24.336;2024-02-04T08:21:57;99434.59;;;15.78;47.43
26376;BME280;30544;42.196;24.336;2024-02-04T08:24:25;99427.06;;;15.79;46.51
26376;BME280;30544;42.196;24.336;2024-02-04T08:26:56;99434.38;;;16.00;46.24
26376;BME280;30544;42.196;24.336;2024-02-04T08:29:23;99427.66;;;16.11;45.97
26376;BME280;30544;42.196;24.336;2024-02-04T08:31:49;99431.88;;;16.14;45.59
26376;BME280;30544;42.196;24.336;2024-02-04T08:34:16;99426.53;;;16.28;45.63
26376;BME280;30544;42.196;24.336;2024-02-04T08:36:42;99429.91;;;16.40;45.01
26376;BME280;30544;42.196;24.336;2024-02-04T08:39:09;99436.63;;;16.49;44.71
26376;BME280;30544;42.196;24.336;2024-02-04T08:41:35;99432.41;;;16.57;44.51
26376;BME280;30544;42.196;24.336;2024-02-04T08:44:03;99436.31;;;16.76;44.16
26376;BME280;30544;42.196;24.336;2024-02-04T08:46:30;99421.72;;;16.99;44.05
26376;BME280;30544;42.196;24.336;2024-02-04T08:48:56;99441.00;;;17.16;43.65
26376;BME280;30544;42.196;24.336;2024-02-04T08:51:23;99428.59;;;17.27;43.20
26376;BME280;30544;42.196;24.336;2024-02-04T08:53:50;99421.53;;;17.40;42.53
26376;BME280;30544;42.196;24.336;2024-02-04T08:56:16;99428.28;;;17.39;42.11
26376;BME280;30544;42.196;24.336;2024-02-04T08:58:44;99429.63;;;17.52;42.17
26376;BME280;30544;42.196;24.336;2024-02-04T09:01:12;99420.88;;;17.68;41.94
26376;BME280;30544;42.196;24.336;2024-02-04T09:03:39;99422.31;;;18.05;41.87
26376;BME280;30544;42.196;24.336;2024-02-04T09:06:05;99421.88;;;18.22;40.57
26376;BME280;30544;42.196;24.336;2024-02-04T09:08:32;99428.16;;;18.43;40.30
26376;BME280;30544;42.196;24.336;2024-02-04T09:10:58;99419.59;;;18.58;40.26
26376;BME280;30544;42.196;24.336;2024-02-04T09:13:25;99427.28;;;18.81;39.10
26376;BME280;30544;42.196;24.336;2024-02-04T09:15:52;99420.97;;;18.66;38.67
26376;BME280;30544;42.196;24.336;2024-02-04T09:18:20;99417.31;;;18.60;38.96
26376;BME280;30544;42.196;24.336;2024-02-04T09:20:47;99399.22;;;18.76;38.57
26376;BME280;30544;42.196;24.336;2024-02-04T09:23:13;99409.91;;;18.74;38.40
26376;BME280;30544;42.196;24.336;2024-02-04T09:25:40;99410.69;;;18.80;38.51
26376;BME280;30544;42.196;24.336;2024-02-04T09:28:07;99402.66;;;18.39;38.54
26376;BME280;30544;42.196;24.336;2024-02-04T09:30:33;99402.81;;;18.53;38.82
26376;BME280;30544;42.196;24.336;2024-02-04T09:33:00;99406.09;;;18.60;38.46
26376;BME280;30544;42.196;24.336;2024-02-04T09:35:28;99403.56;;;18.63;38.59
26376;BME280;30544;42.196;24.336;2024-02-04T09:37:54;99404.53;;;18.49;38.95
26376;BME280;30544;42.196;24.336;2024-02-04T09:40:21;99406.50;;;18.77;38.36
26376;BME280;30544;42.196;24.336;2024-02-04T09:42:48;99402.28;;;19.04;38.18
26376;BME280;30544;42.196;24.336;2024-02-04T09:45:14;99407.44;;;19.20;37.46
26376;BME280;30544;42.196;24.336;2024-02-04T09:47:42;99398.50;;;18.89;37.77
26376;BME280;30544;42.196;24.336;2024-02-04T09:50:11;99397.56;;;18.99;37.16
26376;BME280;30544;42.196;24.336;2024-02-04T09:52:39;99392.34;;;19.11;37.02
26376;BME280;30544;42.196;24.336;2024-02-04T09:55:06;99398.16;;;18.72;37.22
26376;BME280;30544;42.196;24.336;2024-02-04T09:57:33;99400.75;;;18.63;37.60
26376;BME280;30544;42.196;24.336;2024-02-04T10:00:01;99401.00;;;18.62;38.03
26376;BME280;30544;42.196;24.336;2024-02-04T10:02:29;99392.34;;;18.58;37.90
26376;BME280;30544;42.196;24.336;2024-02-04T10:04:57;99392.72;;;18.47;38.03
26376;BME280;30544;42.196;24.336;2024-02-04T10:07:23;99397.09;;;18.34;38.13
26376;BME280;30544;42.196;24.336;2024-02-04T10:09:51;99410.31;;;18.28;38.32
26376;BME280;30544;42.196;24.336;2024-02-04T10:12:18;99399.72;;;18.20;38.40
26376;BME280;30544;42.196;24.336;2024-02-04T10:14:44;99395.00;;;18.16;38.58
26376;BME280;30544;42.196;24.336;2024-02-04T10:17:13;99390.19;;;18.50;38.11
26376;BME280;30544;42.196;24.336;2024-02-04T10:19:39;99385.16;;;18.18;37.95
26376;BME280;30544;42.196;24.336;2024-02-04T10:22:06;99383.44;;;18.22;38.02
26376;BME280;30544;42.196;24.336;2024-02-04T10:24:33;99378.13;;;18.21;38.02
26376;BME280;30544;42.196;24.336;2024-02-04T10:27:00;99372.28;;;18.12;37.86
26376;BME280;30544;42.196;24.336;2024-02-04T10:29:27;99374.25;;;18.12;38.06
26376;BME280;30544;42.196;24.336;2024-02-04T10:31:53;99364.63;;;18.23;38.14
26376;BME280;30544;42.196;24.336;2024-02-04T10:34:21;99371.84;;;18.29;37.95
26376;BME280;30544;42.196;24.336;2024-02-04T10:36:48;99369.94;;;17.90;38.38
26376;BME280;30544;42.196;24.336;2024-02-04T10:39:14;99368.63;;;17.78;38.87
26376;BME280;30544;42.196;24.336;2024-02-04T10:41:43;99372.13;;;17.98;38.45
26376;BME280;30544;42.196;24.336;2024-02-04T10:44:16;99369.59;;;17.97;38.58
26376;BME280;30544;42.196;24.336;2024-02-04T10:46:43;99366.66;;;18.12;38.58
26376;BME280;30544;42.196;24.336;2024-02-04T10:49:13;99372.56;;;18.16;37.89
26376;BME280;30544;42.196;24.336;2024-02-04T10:51:40;99371.19;;;18.08;38.41
26376;BME280;30544;42.196;24.336;2024-02-04T10:54:07;99375.69;;;18.09;38.51
26376;BME280;30544;42.196;24.336;2024-02-04T10:56:36;99376.44;;;17.86;39.05
26376;BME280;30544;42.196;24.336;2024-02-04T10:59:03;99369.28;;;18.03;38.97
26376;BME280;30544;42.196;24.336;2024-02-04T11:01:31;99374.06;;;18.03;38.67
26376;BME280;30544;42.196;24.336;2024-02-04T11:03:58;99372.09;;;18.03;39.02
26376;BME280;30544;42.196;24.336;2024-02-04T11:06:25;99372.09;;;18.03;39.04
26376;BME280;30544;42.196;24.336;2024-02-04T11:08:53;99373.75;;;17.65;39.48
26376;BME280;30544;42.196;24.336;2024-02-04T11:11:20;99360.50;;;17.81;39.49
26376;BME280;30544;42.196;24.336;2024-02-04T11:13:47;99364.09;;;17.87;39.36
26376;BME280;30544;42.196;24.336;2024-02-04T11:16:21;99365.13;;;17.96;39.20
26376;BME280;30544;42.196;24.336;2024-02-04T11:18:58;99374.66;;;17.95;39.35
26376;BME280;30544;42.196;24.336;2024-02-04T11:21:34;99378.81;;;18.02;39.43
26376;BME280;30544;42.196;24.336;2024-02-04T11:24:08;99373.03;;;17.89;39.74
26376;BME280;30544;42.196;24.336;2024-02-04T11:26:38;99385.31;;;17.98;39.62
26376;BME280;30544;42.196;24.336;2024-02-04T11:29:06;99381.50;;;17.79;40.03
26376;BME280;30544;42.196;24.336;2024-02-04T11:31:32;99371.06;;;17.89;39.72
26376;BME280;30544;42.196;24.336;2024-02-04T11:34:00;99383.59;;;18.02;39.59
26376;BME280;30544;42.196;24.336;2024-02-04T11:36:27;99362.81;;;18.03;39.41
26376;BME280;30544;42.196;24.336;2024-02-04T11:38:53;99367.50;;;17.79;39.81
26376;BME280;30544;42.196;24.336;2024-02-04T11:41:23;99380.72;;;17.73;39.79
26376;BME280;30544;42.196;24.336;2024-02-04T11:43:52;99375.72;;;17.60;40.12
26376;BME280;30544;42.196;24.336;2024-02-04T11:46:18;99373.94;;;18.13;39.48
26376;BME280;30544;42.196;24.336;2024-02-04T11:48:51;99367.78;;;18.11;39.74
26376;BME280;30544;42.196;24.336;2024-02-04T11:51:21;99367.00;;;18.06;39.76
26376;BME280;30544;42.196;24.336;2024-02-04T11:53:47;99361.44;;;18.29;39.91
26376;BME280;30544;42.196;24.336;2024-02-04T11:56:14;99351.19;;;18.20;39.53
26376;BME280;30544;42.196;24.336;2024-02-04T11:58:40;99356.56;;;18.11;39.84
26376;BME280;30544;42.196;24.336;2024-02-04T12:01:09;99345.28;;;18.21;39.40
26376;BME280;30544;42.196;24.336;2024-02-04T12:03:36;99343.00;;;18.23;39.48
26376;BME280;30544;42.196;24.336;2024-02-04T12:06:03;99335.84;;;18.07;39.43
26376;BME280;30544;42.196;24.336;2024-02-04T12:08:31;99353.34;;;17.94;39.84
26376;BME280;30544;42.196;24.336;2024-02-04T12:10:58;99321.63;;;17.98;39.92
26376;BME280;30544;42.196;24.336;2024-02-04T12:13:25;99361.34;;;17.77;39.86
26376;BME280;30544;42.196;24.336;2024-02-04T12:15:53;99327.31;;;17.49;40.52
26376;BME280;30544;42.196;24.336;2024-02-04T12:18:20;99315.69;;;17.61;40.67
26376;BME280;30544;42.196;24.336;2024-02-04T12:20:47;99317.59;;;17.76;40.68
26376;BME280;30544;42.196;24.336;2024-02-04T12:23:14;99312.44;;;17.88;40.35
26376;BME280;30544;42.196;24.336;2024-02-04T12:25:42;99312.50;;;17.83;40.54
26376;BME280;30544;42.196;24.336;2024-02-04T12:28:09;99313.19;;;17.64;40.43
26376;BME280;30544;42.196;24.336;2024-02-04T12:30:36;99303.41;;;17.57;40.58
26376;BME280;30544;42.196;24.336;2024-02-04T12:33:03;99315.00;;;17.40;41.01
26376;BME280;30544;42.196;24.336;2024-02-04T12:35:30;99301.34;;;17.33;40.89
26376;BME280;30544;42.196;24.336;2024-02-04T12:37:57;99309.59;;;17.54;41.00
26376;BME280;30544;42.196;24.336;2024-02-04T12:40:24;99305.59;;;17.70;40.53
26376;BME280;30544;42.196;24.336;2024-02-04T12:42:54;99291.47;;;17.80;40.52
26376;BME280;30544;42.196;24.336;2024-02-04T12:45:21;99307.72;;;17.83;39.79
26376;BME280;30544;42.196;24.336;2024-02-04T12:47:48;99289.28;;;18.06;39.24
26376;BME280;30544;42.196;24.336;2024-02-04T12:50:15;99291.47;;;18.14;39.40